sensor_id;sensor_type;location;lat;lon;timestamp;P1;durP1;ratioP1;P2;durP2;ratioP2
73107;SDS011;61559;50.476;15.588;2022-11-24T00:04:53;40.80;;;19.80;;
73107;SDS011;61559;50.476;15.588;2022-11-24T00:07:24;35.70;;;17.20;;
73107;SDS011;61559;50.476;15.588;2022-11-24T00:09:55;45.10;;;18.90;;
73107;SDS011;61559;50.476;15.588;2022-11-24T00:12:26;45.70;;;21.20;;
73107;SDS011;61559;50.476;15.588;2022-11-24T00:14:57;43.90;;;18.20;;
73107;SDS011;61559;50.476;15.588;2022-11-24T00:19:58;38.50;;;18.10;;
73107;SDS011;61559;50.476;15.588;2022-11-24T00:22:30;36.40;;;17.10;;
73107;SDS011;61559;50.476;15.588;2022-11-24T00:25:02;36.00;;;17.70;;
73107;SDS011;61559;50.476;15.588;2022-11-24T00:27:34;39.00;;;16.70;;
73107;SDS011;61559;50.476;15.588;2022-11-24T00:30:06;34.10;;;16.80;;
73107;SDS011;61559;50.476;15.588;2022-11-24T00:32:38;42.30;;;18.80;;
73107;SDS011;61559;50.476;15.588;2022-11-24T00:37:39;39.90;;;17.40;;
73107;SDS011;61559;50.476;15.588;2022-11-24T00:42:40;38.00;;;17.00;;
73107;SDS011;61559;50.476;15.588;2022-11-24T00:45:12;38.20;;;17.60;;
73107;SDS011;61559;50.476;15.588;2022-11-24T00:47:43;38.30;;;17.70;;
73107;SDS011;61559;50.476;15.588;2022-11-24T00:50:14;35.70;;;16.80;;
73107;SDS011;61559;50.476;15.588;2022-11-24T00:52:47;38.60;;;18.40;;
73107;SDS011;61559;50.476;15.588;2022-11-24T00:55:18;37.90;;;17.90;;
73107;SDS011;61559;50.476;15.588;2022-11-24T00:57:49;36.50;;;16.80;;
73107;SDS011;61559;50.476;15.588;2022-11-24T01:00:21;35.30;;;17.20;;
73107;SDS011;61559;50.476;15.588;2022-11-24T01:02:52;36.40;;;19.00;;
73107;SDS011;61559;50.476;15.588;2022-11-24T01:05:23;38.40;;;16.40;;
73107;SDS011;61559;50.476;15.588;2022-11-24T01:07:54;37.70;;;17.20;;
73107;SDS011;61559;50.476;15.588;2022-11-24T01:12:55;43.10;;;18.10;;
73107;SDS011;61559;50.476;15.588;2022-11-24T01:15:26;30.00;;;15.00;;
73107;SDS011;61559;50.476;15.588;2022-11-24T01:17:58;33.70;;;16.60;;
73107;SDS011;61559;50.476;15.588;2022-11-24T01:22:59;35.50;;;14.20;;
73107;SDS011;61559;50.476;15.588;2022-11-24T01:25:30;37.20;;;15.40;;
73107;SDS011;61559;50.476;15.588;2022-11-24T01:28:02;35.80;;;17.30;;
73107;SDS011;61559;50.476;15.588;2022-11-24T01:30:33;38.50;;;17.40;;
73107;SDS011;61559;50.476;15.588;2022-11-24T01:35:35;27.10;;;13.60;;
73107;SDS011;61559;50.476;15.588;2022-11-24T01:38:06;28.20;;;13.80;;
73107;SDS011;61559;50.476;15.588;2022-11-24T01:40:37;29.80;;;15.70;;
73107;SDS011;61559;50.476;15.588;2022-11-24T01:43:14;33.80;;;15.60;;
73107;SDS011;61559;50.476;15.588;2022-11-24T01:45:47;36.00;;;15.80;;
73107;SDS011;61559;50.476;15.588;2022-11-24T01:48:19;29.50;;;14.30;;
73107;SDS011;61559;50.476;15.588;2022-11-24T01:50:56;36.50;;;15.10;;
73107;SDS011;61559;50.476;15.588;2022-11-24T01:53:36;32.50;;;14.70;;
73107;SDS011;61559;50.476;15.588;2022-11-24T01:56:10;33.10;;;14.80;;
73107;SDS011;61559;50.476;15.588;2022-11-24T01:58:43;32.70;;;14.10;;
73107;SDS011;61559;50.476;15.588;2022-11-24T02:01:16;27.60;;;14.70;;
73107;SDS011;61559;50.476;15.588;2022-11-24T02:03:48;30.20;;;14.70;;
73107;SDS011;61559;50.476;15.588;2022-11-24T02:06:21;28.50;;;13.70;;
73107;SDS011;61559;50.476;15.588;2022-11-24T02:08:56;28.30;;;11.20;;
73107;SDS011;61559;50.476;15.588;2022-11-24T02:11:32;29.40;;;13.20;;
73107;SDS011;61559;50.476;15.588;2022-11-24T02:14:06;26.10;;;12.60;;
73107;SDS011;61559;50.476;15.588;2022-11-24T02:16:41;27.50;;;11.90;;
73107;SDS011;61559;50.476;15.588;2022-11-24T02:19:19;25.30;;;12.10;;
73107;SDS011;61559;50.476;15.588;2022-11-24T02:22:00;25.20;;;11.90;;
73107;SDS011;61559;50.476;15.588;2022-11-24T02:24:34;22.80;;;10.40;;
73107;SDS011;61559;50.476;15.588;2022-11-24T02:27:09;27.80;;;12.30;;
73107;SDS011;61559;50.476;15.588;2022-11-24T02:29:41;23.50;;;10.30;;
73107;SDS011;61559;50.476;15.588;2022-11-24T02:32:12;20.10;;;9.60;;
73107;SDS011;61559;50.476;15.588;2022-11-24T02:34:44;20.00;;;10.80;;
73107;SDS011;61559;50.476;15.588;2022-11-24T02:37:16;17.10;;;9.50;;
73107;SDS011;61559;50.476;15.588;2022-11-24T02:39:47;19.10;;;9.20;;
73107;SDS011;61559;50.476;15.588;2022-11-24T02:42:18;19.80;;;9.00;;
73107;SDS011;61559;50.476;15.588;2022-11-24T02:47:23;16.60;;;8.20;;
73107;SDS011;61559;50.476;15.588;2022-11-24T02:49:54;20.20;;;8.80;;
73107;SDS011;61559;50.476;15.588;2022-11-24T02:52:26;20.20;;;10.70;;
73107;SDS011;61559;50.476;15.588;2022-11-24T02:54:57;18.50;;;9.00;;
73107;SDS011;61559;50.476;15.588;2022-11-24T02:57:28;21.10;;;10.00;;
73107;SDS011;61559;50.476;15.588;2022-11-24T02:59:59;20.20;;;9.70;;
73107;SDS011;61559;50.476;15.588;2022-11-24T03:02:31;19.00;;;9.10;;
73107;SDS011;61559;50.476;15.588;2022-11-24T03:05:03;20.10;;;9.20;;
73107;SDS011;61559;50.476;15.588;2022-11-24T03:07:35;18.00;;;8.20;;
73107;SDS011;61559;50.476;15.588;2022-11-24T03:10:06;13.90;;;8.10;;
73107;SDS011;61559;50.476;15.588;2022-11-24T03:12:38;18.50;;;9.80;;
73107;SDS011;61559;50.476;15.588;2022-11-24T03:15:10;17.60;;;8.00;;
73107;SDS011;61559;50.476;15.588;2022-11-24T03:17:41;17.40;;;7.90;;
73107;SDS011;61559;50.476;15.588;2022-11-24T03:20:13;17.30;;;8.00;;
73107;SDS011;61559;50.476;15.588;2022-11-24T03:22:44;20.00;;;8.60;;
73107;SDS011;61559;50.476;15.588;2022-11-24T03:25:16;18.30;;;8.40;;
73107;SDS011;61559;50.476;15.588;2022-11-24T03:27:47;18.90;;;9.30;;
73107;SDS011;61559;50.476;15.588;2022-11-24T03:30:18;13.50;;;8.10;;
73107;SDS011;61559;50.476;15.588;2022-11-24T03:32:51;18.50;;;8.00;;
73107;SDS011;61559;50.476;15.588;2022-11-24T03:35:22;18.00;;;8.20;;
73107;SDS011;61559;50.476;15.588;2022-11-24T03:40:23;21.90;;;9.90;;
73107;SDS011;61559;50.476;15.588;2022-11-24T03:42:54;17.50;;;8.40;;
73107;SDS011;61559;50.476;15.588;2022-11-24T03:45:25;21.80;;;9.20;;
73107;SDS011;61559;50.476;15.588;2022-11-24T03:48:13;21.10;;;10.70;;
73107;SDS011;61559;50.476;15.588;2022-11-24T03:50:51;27.30;;;11.50;;
73107;SDS011;61559;50.476;15.588;2022-11-24T03:53:24;22.20;;;10.40;;
73107;SDS011;61559;50.476;15.588;2022-11-24T03:55:56;20.00;;;8.70;;
73107;SDS011;61559;50.476;15.588;2022-11-24T04:00:58;16.80;;;8.10;;
73107;SDS011;61559;50.476;15.588;2022-11-24T04:03:29;17.60;;;8.10;;
73107;SDS011;61559;50.476;15.588;2022-11-24T04:06:01;15.70;;;7.90;;
73107;SDS011;61559;50.476;15.588;2022-11-24T04:08:31;18.10;;;8.20;;
73107;SDS011;61559;50.476;15.588;2022-11-24T04:11:03;19.50;;;8.80;;
73107;SDS011;61559;50.476;15.588;2022-11-24T04:16:05;18.30;;;8.00;;
73107;SDS011;61559;50.476;15.588;2022-11-24T04:18:37;16.20;;;7.70;;
73107;SDS011;61559;50.476;15.588;2022-11-24T04:21:10;17.90;;;8.80;;
73107;SDS011;61559;50.476;15.588;2022-11-24T04:23:41;14.80;;;7.50;;
73107;SDS011;61559;50.476;15.588;2022-11-24T04:26:12;18.60;;;8.70;;
73107;SDS011;61559;50.476;15.588;2022-11-24T04:28:43;19.80;;;8.60;;
73107;SDS011;61559;50.476;15.588;2022-11-24T04:31:14;18.10;;;8.70;;
73107;SDS011;61559;50.476;15.588;2022-11-24T04:33:46;17.20;;;8.00;;
73107;SDS011;61559;50.476;15.588;2022-11-24T04:36:17;18.40;;;8.20;;
73107;SDS011;61559;50.476;15.588;2022-11-24T04:38:48;15.70;;;8.10;;
73107;SDS011;61559;50.476;15.588;2022-11-24T04:41:42;23.10;;;9.80;;
73107;SDS011;61559;50.476;15.588;2022-11-24T04:44:15;20.10;;;8.80;;
73107;SDS011;61559;50.476;15.588;2022-11-24T04:49:16;19.80;;;9.20;;
73107;SDS011;61559;50.476;15.588;2022-11-24T04:51:47;19.20;;;9.30;;
73107;SDS011;61559;50.476;15.588;2022-11-24T04:54:18;20.40;;;9.30;;
73107;SDS011;61559;50.476;15.588;2022-11-24T04:56:50;21.50;;;9.70;;
73107;SDS011;61559;50.476;15.588;2022-11-24T04:59:21;22.40;;;9.60;;
73107;SDS011;61559;50.476;15.588;2022-11-24T05:01:52;21.50;;;9.90;;
73107;SDS011;61559;50.476;15.588;2022-11-24T05:04:23;20.60;;;9.30;;
73107;SDS011;61559;50.476;15.588;2022-11-24T05:06:54;23.20;;;11.00;;
73107;SDS011;61559;50.476;15.588;2022-11-24T05:09:25;26.10;;;11.80;;
73107;SDS011;61559;50.476;15.588;2022-11-24T05:12:16;28.70;;;12.40;;
73107;SDS011;61559;50.476;15.588;2022-11-24T05:14:47;34.30;;;15.50;;
73107;SDS011;61559;50.476;15.588;2022-11-24T05:17:18;26.80;;;12.60;;
73107;SDS011;61559;50.476;15.588;2022-11-24T05:19:49;37.40;;;18.30;;
73107;SDS011;61559;50.476;15.588;2022-11-24T05:22:20;37.00;;;17.90;;
73107;SDS011;61559;50.476;15.588;2022-11-24T05:24:54;38.30;;;18.70;;
73107;SDS011;61559;50.476;15.588;2022-11-24T05:27:25;41.60;;;19.50;;
73107;SDS011;61559;50.476;15.588;2022-11-24T05:32:26;38.00;;;16.50;;
73107;SDS011;61559;50.476;15.588;2022-11-24T05:34:57;45.10;;;20.20;;
73107;SDS011;61559;50.476;15.588;2022-11-24T05:37:29;40.90;;;19.50;;
73107;SDS011;61559;50.476;15.588;2022-11-24T05:40:01;40.50;;;18.80;;
73107;SDS011;61559;50.476;15.588;2022-11-24T05:42:33;38.80;;;17.80;;
73107;SDS011;61559;50.476;15.588;2022-11-24T05:45:16;34.50;;;16.90;;
73107;SDS011;61559;50.476;15.588;2022-11-24T05:47:49;39.30;;;17.90;;
73107;SDS011;61559;50.476;15.588;2022-11-24T05:55:19;31.50;;;14.30;;
73107;SDS011;61559;50.476;15.588;2022-11-24T05:57:55;26.80;;;13.00;;
73107;SDS011;61559;50.476;15.588;2022-11-24T06:00:27;26.90;;;12.80;;
73107;SDS011;61559;50.476;15.588;2022-11-24T06:03:00;33.90;;;16.20;;
73107;SDS011;61559;50.476;15.588;2022-11-24T06:05:31;43.70;;;18.00;;
73107;SDS011;61559;50.476;15.588;2022-11-24T06:10:32;28.70;;;13.10;;
73107;SDS011;61559;50.476;15.588;2022-11-24T06:15:34;31.80;;;15.00;;
73107;SDS011;61559;50.476;15.588;2022-11-24T06:18:07;40.20;;;20.80;;
73107;SDS011;61559;50.476;15.588;2022-11-24T06:20:38;28.90;;;12.90;;
73107;SDS011;61559;50.476;15.588;2022-11-24T06:23:20;30.80;;;13.90;;
73107;SDS011;61559;50.476;15.588;2022-11-24T06:25:51;27.10;;;13.20;;
73107;SDS011;61559;50.476;15.588;2022-11-24T06:28:22;36.20;;;16.70;;
73107;SDS011;61559;50.476;15.588;2022-11-24T06:30:53;32.50;;;15.90;;
73107;SDS011;61559;50.476;15.588;2022-11-24T06:33:30;32.80;;;15.70;;
73107;SDS011;61559;50.476;15.588;2022-11-24T06:36:02;30.70;;;15.00;;
73107;SDS011;61559;50.476;15.588;2022-11-24T06:38:35;36.20;;;16.60;;
73107;SDS011;61559;50.476;15.588;2022-11-24T06:41:08;41.10;;;20.60;;
73107;SDS011;61559;50.476;15.588;2022-11-24T06:43:40;45.40;;;19.00;;
73107;SDS011;61559;50.476;15.588;2022-11-24T06:48:41;31.80;;;13.60;;
73107;SDS011;61559;50.476;15.588;2022-11-24T06:51:12;26.50;;;12.40;;
73107;SDS011;61559;50.476;15.588;2022-11-24T06:53:46;33.60;;;16.60;;
73107;SDS011;61559;50.476;15.588;2022-11-24T06:56:17;28.40;;;13.50;;
73107;SDS011;61559;50.476;15.588;2022-11-24T06:58:50;27.60;;;12.60;;
73107;SDS011;61559;50.476;15.588;2022-11-24T07:01:22;27.10;;;12.60;;
73107;SDS011;61559;50.476;15.588;2022-11-24T07:03:55;27.60;;;13.30;;
73107;SDS011;61559;50.476;15.588;2022-11-24T07:06:26;29.80;;;13.70;;
73107;SDS011;61559;50.476;15.588;2022-11-24T07:08:57;27.50;;;12.00;;
73107;SDS011;61559;50.476;15.588;2022-11-24T07:11:28;24.70;;;10.90;;
73107;SDS011;61559;50.476;15.588;2022-11-24T07:16:29;18.20;;;9.30;;
73107;SDS011;61559;50.476;15.588;2022-11-24T07:19:01;23.70;;;12.20;;
73107;SDS011;61559;50.476;15.588;2022-11-24T07:21:32;24.90;;;13.10;;
73107;SDS011;61559;50.476;15.588;2022-11-24T07:24:03;26.90;;;11.80;;
73107;SDS011;61559;50.476;15.588;2022-11-24T07:26:35;74.30;;;24.10;;
73107;SDS011;61559;50.476;15.588;2022-11-24T07:29:07;32.80;;;13.20;;
73107;SDS011;61559;50.476;15.588;2022-11-24T07:31:38;24.90;;;11.40;;
73107;SDS011;61559;50.476;15.588;2022-11-24T07:34:09;24.00;;;11.20;;
73107;SDS011;61559;50.476;15.588;2022-11-24T07:36:41;28.20;;;11.70;;
73107;SDS011;61559;50.476;15.588;2022-11-24T07:39:12;29.80;;;15.10;;
73107;SDS011;61559;50.476;15.588;2022-11-24T07:41:44;28.20;;;14.10;;
73107;SDS011;61559;50.476;15.588;2022-11-24T07:44:15;21.60;;;11.10;;
73107;SDS011;61559;50.476;15.588;2022-11-24T07:46:46;21.60;;;10.90;;
73107;SDS011;61559;50.476;15.588;2022-11-24T07:49:18;28.70;;;12.80;;
73107;SDS011;61559;50.476;15.588;2022-11-24T07:51:49;23.70;;;11.70;;
73107;SDS011;61559;50.476;15.588;2022-11-24T07:54:20;23.00;;;10.50;;
73107;SDS011;61559;50.476;15.588;2022-11-24T07:56:51;43.80;;;18.40;;
73107;SDS011;61559;50.476;15.588;2022-11-24T07:59:22;37.50;;;17.60;;
73107;SDS011;61559;50.476;15.588;2022-11-24T08:01:53;22.90;;;10.40;;
73107;SDS011;61559;50.476;15.588;2022-11-24T08:04:24;24.40;;;10.30;;
73107;SDS011;61559;50.476;15.588;2022-11-24T08:06:55;21.30;;;9.20;;
73107;SDS011;61559;50.476;15.588;2022-11-24T08:09:25;26.30;;;10.80;;
73107;SDS011;61559;50.476;15.588;2022-11-24T08:11:56;35.90;;;14.20;;
73107;SDS011;61559;50.476;15.588;2022-11-24T08:14:27;24.30;;;11.50;;
73107;SDS011;61559;50.476;15.588;2022-11-24T08:19:28;18.10;;;8.60;;
73107;SDS011;61559;50.476;15.588;2022-11-24T08:24:29;16.50;;;8.20;;
73107;SDS011;61559;50.476;15.588;2022-11-24T08:27:00;14.40;;;6.60;;
73107;SDS011;61559;50.476;15.588;2022-11-24T08:29:31;14.80;;;7.10;;
73107;SDS011;61559;50.476;15.588;2022-11-24T08:32:02;18.40;;;7.80;;
73107;SDS011;61559;50.476;15.588;2022-11-24T08:34:34;53.80;;;26.20;;
73107;SDS011;61559;50.476;15.588;2022-11-24T08:37:05;25.20;;;12.00;;
73107;SDS011;61559;50.476;15.588;2022-11-24T08:42:06;19.30;;;8.20;;
73107;SDS011;61559;50.476;15.588;2022-11-24T08:47:06;16.60;;;8.30;;
73107;SDS011;61559;50.476;15.588;2022-11-24T08:49:37;15.90;;;7.70;;
73107;SDS011;61559;50.476;15.588;2022-11-24T08:52:09;68.90;;;19.90;;
73107;SDS011;61559;50.476;15.588;2022-11-24T08:54:39;57.80;;;17.60;;
73107;SDS011;61559;50.476;15.588;2022-11-24T08:57:11;87.80;;;23.50;;
73107;SDS011;61559;50.476;15.588;2022-11-24T08:59:48;87.80;;;23.80;;
73107;SDS011;61559;50.476;15.588;2022-11-24T09:02:19;81.10;;;30.30;;
73107;SDS011;61559;50.476;15.588;2022-11-24T09:07:20;60.50;;;22.90;;
73107;SDS011;61559;50.476;15.588;2022-11-24T09:09:51;35.30;;;14.50;;
73107;SDS011;61559;50.476;15.588;2022-11-24T09:12:22;29.80;;;14.30;;
73107;SDS011;61559;50.476;15.588;2022-11-24T09:14:53;37.20;;;15.00;;
73107;SDS011;61559;50.476;15.588;2022-11-24T09:17:24;35.50;;;15.70;;
73107;SDS011;61559;50.476;15.588;2022-11-24T09:22:42;31.40;;;12.80;;
73107;SDS011;61559;50.476;15.588;2022-11-24T09:25:14;30.70;;;11.80;;
73107;SDS011;61559;50.476;15.588;2022-11-24T09:27:45;20.90;;;10.40;;
73107;SDS011;61559;50.476;15.588;2022-11-24T09:30:16;26.30;;;10.80;;
73107;SDS011;61559;50.476;15.588;2022-11-24T09:32:47;29.90;;;13.40;;
73107;SDS011;61559;50.476;15.588;2022-11-24T09:35:18;28.10;;;11.40;;
73107;SDS011;61559;50.476;15.588;2022-11-24T09:37:49;24.90;;;11.10;;
73107;SDS011;61559;50.476;15.588;2022-11-24T09:40:20;20.70;;;9.80;;
73107;SDS011;61559;50.476;15.588;2022-11-24T09:42:54;22.40;;;10.10;;
73107;SDS011;61559;50.476;15.588;2022-11-24T09:45:33;22.50;;;9.50;;
73107;SDS011;61559;50.476;15.588;2022-11-24T09:48:33;18.00;;;7.90;;
73107;SDS011;61559;50.476;15.588;2022-11-24T09:51:09;21.50;;;9.00;;
73107;SDS011;61559;50.476;15.588;2022-11-24T09:53:42;19.00;;;8.50;;
73107;SDS011;61559;50.476;15.588;2022-11-24T09:56:23;20.40;;;8.90;;
73107;SDS011;61559;50.476;15.588;2022-11-24T09:58:58;22.80;;;9.10;;
73107;SDS011;61559;50.476;15.588;2022-11-24T10:01:33;20.30;;;8.70;;
73107;SDS011;61559;50.476;15.588;2022-11-24T10:04:09;17.40;;;8.80;;
73107;SDS011;61559;50.476;15.588;2022-11-24T10:06:46;17.70;;;8.00;;
73107;SDS011;61559;50.476;15.588;2022-11-24T10:12:15;14.00;;;8.70;;
73107;SDS011;61559;50.476;15.588;2022-11-24T10:15:01;22.30;;;9.00;;
73107;SDS011;61559;50.476;15.588;2022-11-24T10:17:49;20.00;;;9.50;;
73107;SDS011;61559;50.476;15.588;2022-11-24T10:20:47;15.20;;;7.70;;
73107;SDS011;61559;50.476;15.588;2022-11-24T10:23:29;15.60;;;7.70;;
73107;SDS011;61559;50.476;15.588;2022-11-24T10:26:17;17.90;;;8.40;;
73107;SDS011;61559;50.476;15.588;2022-11-24T10:28:53;18.10;;;7.30;;
73107;SDS011;61559;50.476;15.588;2022-11-24T10:31:27;17.30;;;7.60;;
73107;SDS011;61559;50.476;15.588;2022-11-24T10:34:02;18.50;;;7.10;;
73107;SDS011;61559;50.476;15.588;2022-11-24T10:39:19;15.90;;;7.20;;
73107;SDS011;61559;50.476;15.588;2022-11-24T10:41:57;15.30;;;7.20;;
73107;SDS011;61559;50.476;15.588;2022-11-24T10:44:33;13.30;;;6.80;;
73107;SDS011;61559;50.476;15.588;2022-11-24T10:47:07;12.90;;;6.40;;
73107;SDS011;61559;50.476;15.588;2022-11-24T10:49:47;11.70;;;5.90;;
73107;SDS011;61559;50.476;15.588;2022-11-24T10:52:23;9.40;;;4.90;;
73107;SDS011;61559;50.476;15.588;2022-11-24T10:54:57;10.30;;;5.20;;
73107;SDS011;61559;50.476;15.588;2022-11-24T10:57:31;10.40;;;6.20;;
73107;SDS011;61559;50.476;15.588;2022-11-24T11:00:03;9.60;;;4.40;;
73107;SDS011;61559;50.476;15.588;2022-11-24T11:03:10;11.30;;;4.90;;
73107;SDS011;61559;50.476;15.588;2022-11-24T11:05:48;13.00;;;5.20;;
73107;SDS011;61559;50.476;15.588;2022-11-24T11:08:23;10.40;;;4.80;;
73107;SDS011;61559;50.476;15.588;2022-11-24T11:11:16;9.40;;;5.50;;
73107;SDS011;61559;50.476;15.588;2022-11-24T11:13:54;9.90;;;5.20;;
73107;SDS011;61559;50.476;15.588;2022-11-24T11:16:33;8.40;;;5.00;;
73107;SDS011;61559;50.476;15.588;2022-11-24T11:19:26;12.30;;;6.10;;
73107;SDS011;61559;50.476;15.588;2022-11-24T11:22:23;11.70;;;6.70;;
73107;SDS011;61559;50.476;15.588;2022-11-24T11:25:06;11.60;;;5.30;;
73107;SDS011;61559;50.476;15.588;2022-11-24T11:27:48;9.60;;;4.90;;
73107;SDS011;61559;50.476;15.588;2022-11-24T11:30:23;13.30;;;5.60;;
73107;SDS011;61559;50.476;15.588;2022-11-24T11:33:19;10.40;;;5.70;;
73107;SDS011;61559;50.476;15.588;2022-11-24T11:36:12;12.30;;;5.90;;
73107;SDS011;61559;50.476;15.588;2022-11-24T11:38:43;16.10;;;6.20;;
73107;SDS011;61559;50.476;15.588;2022-11-24T11:41:17;13.60;;;6.00;;
73107;SDS011;61559;50.476;15.588;2022-11-24T11:43:53;13.90;;;6.30;;
73107;SDS011;61559;50.476;15.588;2022-11-24T11:46:31;14.30;;;6.30;;
73107;SDS011;61559;50.476;15.588;2022-11-24T11:49:02;14.80;;;6.90;;
73107;SDS011;61559;50.476;15.588;2022-11-24T11:51:40;15.50;;;7.30;;
73107;SDS011;61559;50.476;15.588;2022-11-24T11:54:43;17.40;;;7.60;;
73107;SDS011;61559;50.476;15.588;2022-11-24T11:57:33;17.50;;;10.00;;
73107;SDS011;61559;50.476;15.588;2022-11-24T12:00:13;16.60;;;8.60;;
73107;SDS011;61559;50.476;15.588;2022-11-24T12:02:53;18.10;;;8.80;;
73107;SDS011;61559;50.476;15.588;2022-11-24T12:05:45;17.60;;;8.20;;
73107;SDS011;61559;50.476;15.588;2022-11-24T12:08:24;18.60;;;9.50;;
73107;SDS011;61559;50.476;15.588;2022-11-24T12:11:29;17.20;;;8.50;;
73107;SDS011;61559;50.476;15.588;2022-11-24T12:14:11;13.50;;;7.60;;
73107;SDS011;61559;50.476;15.588;2022-11-24T12:16:51;16.50;;;8.70;;
73107;SDS011;61559;50.476;15.588;2022-11-24T12:19:47;19.60;;;9.10;;
73107;SDS011;61559;50.476;15.588;2022-11-24T12:22:28;16.20;;;8.40;;
73107;SDS011;61559;50.476;15.588;2022-11-24T12:25:16;17.80;;;10.30;;
73107;SDS011;61559;50.476;15.588;2022-11-24T12:27:58;19.50;;;10.10;;
73107;SDS011;61559;50.476;15.588;2022-11-24T12:30:41;22.60;;;9.70;;
73107;SDS011;61559;50.476;15.588;2022-11-24T12:33:26;16.80;;;8.10;;
73107;SDS011;61559;50.476;15.588;2022-11-24T12:36:08;19.10;;;9.20;;
73107;SDS011;61559;50.476;15.588;2022-11-24T12:38:50;19.70;;;8.40;;
73107;SDS011;61559;50.476;15.588;2022-11-24T12:41:33;18.70;;;8.60;;
73107;SDS011;61559;50.476;15.588;2022-11-24T12:44:19;15.30;;;8.30;;
73107;SDS011;61559;50.476;15.588;2022-11-24T12:47:06;18.20;;;8.30;;
73107;SDS011;61559;50.476;15.588;2022-11-24T12:49:45;16.30;;;7.60;;
73107;SDS011;61559;50.476;15.588;2022-11-24T12:52:31;18.00;;;9.40;;
73107;SDS011;61559;50.476;15.588;2022-11-24T12:55:07;19.50;;;9.00;;
73107;SDS011;61559;50.476;15.588;2022-11-24T12:57:45;17.70;;;8.90;;
73107;SDS011;61559;50.476;15.588;2022-11-24T13:00:25;21.00;;;10.00;;
73107;SDS011;61559;50.476;15.588;2022-11-24T13:03:10;24.90;;;12.10;;
73107;SDS011;61559;50.476;15.588;2022-11-24T13:05:54;24.80;;;11.60;;
73107;SDS011;61559;50.476;15.588;2022-11-24T13:08:29;18.40;;;7.70;;
73107;SDS011;61559;50.476;15.588;2022-11-24T13:14:13;12.20;;;6.60;;
73107;SDS011;61559;50.476;15.588;2022-11-24T13:16:53;14.80;;;8.00;;
73107;SDS011;61559;50.476;15.588;2022-11-24T13:19:45;18.10;;;8.40;;
73107;SDS011;61559;50.476;15.588;2022-11-24T13:22:21;22.60;;;11.00;;
73107;SDS011;61559;50.476;15.588;2022-11-24T13:25:10;16.10;;;7.90;;
73107;SDS011;61559;50.476;15.588;2022-11-24T13:27:45;17.00;;;8.30;;
73107;SDS011;61559;50.476;15.588;2022-11-24T13:33:30;24.70;;;11.00;;
73107;SDS011;61559;50.476;15.588;2022-11-24T13:39:03;15.00;;;7.20;;
73107;SDS011;61559;50.476;15.588;2022-11-24T13:44:57;21.40;;;9.00;;
73107;SDS011;61559;50.476;15.588;2022-11-24T13:47:31;24.80;;;11.90;;
73107;SDS011;61559;50.476;15.588;2022-11-24T13:50:05;23.30;;;11.80;;
73107;SDS011;61559;50.476;15.588;2022-11-24T13:52:45;22.80;;;11.00;;
73107;SDS011;61559;50.476;15.588;2022-11-24T13:55:20;22.00;;;10.30;;
73107;SDS011;61559;50.476;15.588;2022-11-24T13:57:58;19.00;;;11.00;;
73107;SDS011;61559;50.476;15.588;2022-11-24T14:00:57;13.90;;;8.80;;
73107;SDS011;61559;50.476;15.588;2022-11-24T14:03:34;16.50;;;8.50;;
73107;SDS011;61559;50.476;15.588;2022-11-24T14:06:29;19.10;;;8.50;;
73107;SDS011;61559;50.476;15.588;2022-11-24T14:09:05;19.60;;;8.60;;
73107;SDS011;61559;50.476;15.588;2022-11-24T14:11:53;17.10;;;8.20;;
73107;SDS011;61559;50.476;15.588;2022-11-24T14:14:28;16.40;;;8.50;;
73107;SDS011;61559;50.476;15.588;2022-11-24T14:17:09;17.20;;;7.70;;
73107;SDS011;61559;50.476;15.588;2022-11-24T14:19:45;15.60;;;7.80;;
73107;SDS011;61559;50.476;15.588;2022-11-24T14:22:18;15.90;;;7.90;;
73107;SDS011;61559;50.476;15.588;2022-11-24T14:24:51;15.00;;;8.10;;
73107;SDS011;61559;50.476;15.588;2022-11-24T14:27:28;17.20;;;8.40;;
73107;SDS011;61559;50.476;15.588;2022-11-24T14:30:00;16.80;;;7.00;;
73107;SDS011;61559;50.476;15.588;2022-11-24T14:32:36;14.20;;;7.30;;
73107;SDS011;61559;50.476;15.588;2022-11-24T14:37:48;13.50;;;6.40;;
73107;SDS011;61559;50.476;15.588;2022-11-24T14:40:39;18.70;;;7.50;;
73107;SDS011;61559;50.476;15.588;2022-11-24T14:43:19;13.30;;;7.30;;
73107;SDS011;61559;50.476;15.588;2022-11-24T14:45:54;14.90;;;6.50;;
73107;SDS011;61559;50.476;15.588;2022-11-24T14:48:28;14.70;;;7.00;;
73107;SDS011;61559;50.476;15.588;2022-11-24T14:51:05;11.20;;;6.10;;
73107;SDS011;61559;50.476;15.588;2022-11-24T14:53:41;14.80;;;7.00;;
73107;SDS011;61559;50.476;15.588;2022-11-24T14:56:25;13.90;;;7.60;;
73107;SDS011;61559;50.476;15.588;2022-11-24T14:58:57;14.80;;;7.90;;
73107;SDS011;61559;50.476;15.588;2022-11-24T15:04:16;11.00;;;6.30;;
73107;SDS011;61559;50.476;15.588;2022-11-24T15:09:50;38.70;;;14.30;;
73107;SDS011;61559;50.476;15.588;2022-11-24T15:12:26;54.80;;;17.10;;
73107;SDS011;61559;50.476;15.588;2022-11-24T15:15:02;52.50;;;17.10;;
73107;SDS011;61559;50.476;15.588;2022-11-24T15:17:36;42.70;;;16.00;;
73107;SDS011;61559;50.476;15.588;2022-11-24T15:20:16;32.40;;;12.30;;
73107;SDS011;61559;50.476;15.588;2022-11-24T15:25:51;22.40;;;11.50;;
73107;SDS011;61559;50.476;15.588;2022-11-24T15:28:22;15.60;;;6.80;;
73107;SDS011;61559;50.476;15.588;2022-11-24T15:30:54;13.90;;;6.50;;
73107;SDS011;61559;50.476;15.588;2022-11-24T15:33:28;14.70;;;7.10;;
73107;SDS011;61559;50.476;15.588;2022-11-24T15:36:00;15.70;;;7.60;;
73107;SDS011;61559;50.476;15.588;2022-11-24T15:38:31;14.40;;;6.90;;
73107;SDS011;61559;50.476;15.588;2022-11-24T15:41:15;16.30;;;8.60;;
73107;SDS011;61559;50.476;15.588;2022-11-24T15:43:47;17.90;;;7.60;;
73107;SDS011;61559;50.476;15.588;2022-11-24T15:46:26;14.00;;;6.90;;
73107;SDS011;61559;50.476;15.588;2022-11-24T15:48:57;9.70;;;6.00;;
73107;SDS011;61559;50.476;15.588;2022-11-24T15:51:28;13.40;;;5.80;;
73107;SDS011;61559;50.476;15.588;2022-11-24T15:53:59;14.00;;;6.50;;
73107;SDS011;61559;50.476;15.588;2022-11-24T15:59:01;16.30;;;8.30;;
73107;SDS011;61559;50.476;15.588;2022-11-24T16:01:32;62.00;;;20.00;;
73107;SDS011;61559;50.476;15.588;2022-11-24T16:06:34;21.60;;;9.60;;
73107;SDS011;61559;50.476;15.588;2022-11-24T16:09:05;12.80;;;6.20;;
73107;SDS011;61559;50.476;15.588;2022-11-24T16:11:40;21.30;;;8.60;;
73107;SDS011;61559;50.476;15.588;2022-11-24T16:14:12;18.40;;;8.20;;
73107;SDS011;61559;50.476;15.588;2022-11-24T16:19:12;25.90;;;11.10;;
73107;SDS011;61559;50.476;15.588;2022-11-24T16:21:45;25.50;;;11.60;;
73107;SDS011;61559;50.476;15.588;2022-11-24T16:24:17;15.50;;;7.70;;
73107;SDS011;61559;50.476;15.588;2022-11-24T16:26:48;13.30;;;6.10;;
73107;SDS011;61559;50.476;15.588;2022-11-24T16:29:19;12.60;;;6.50;;
73107;SDS011;61559;50.476;15.588;2022-11-24T16:31:51;15.30;;;7.60;;
73107;SDS011;61559;50.476;15.588;2022-11-24T16:34:23;14.80;;;7.30;;
73107;SDS011;61559;50.476;15.588;2022-11-24T16:39:24;18.30;;;9.30;;
73107;SDS011;61559;50.476;15.588;2022-11-24T16:41:55;18.80;;;9.60;;
73107;SDS011;61559;50.476;15.588;2022-11-24T16:44:26;21.30;;;10.60;;